SBOSBO PVK / LGPZ
Speedbird OnlineSpeedbird Online PVK / LGPZ

Aktion National Airport
01:58 3.9°C

Location Preveza, Greece
Latitude: 38.925498962402344
Longitude: 20.765300750732422
Web Wikipedia
Altitude 3 Meter / 11 Feet
Distance 2,124 KM / 1,320 Miles
from London.
Time Zone UTC +2 hours (Europe/Athens)
Codes IATA: PVK
ICAO: LGPZ
Currency £1 equals EUR 1.13
Runways
RunwayLength (m)Surface
07L2871Asphalt
25R2871Asphalt
Radio
TypeDescriptionFrequency
A/GRDO563.7
APPAPP120.45
TWRTWR120.45
Live ATC
METAR LGPZ 081420Z 08015G25KT 9999 FEW025 SCT070 07/M06 Q1030
TAF TAF LGPZ 081100Z 0812/0912 07016G26KT 9999 FEW020
Weather As Of 09 Feb 2023 01:58
Description Broken clouds
Wind 22 km/h from East (71°)
Cloud Cover 82%
Precipitation Rain: none, Snow: none
Sunrise 07:35
Sunset 18:06



Support Speedbird Online

© 2017-2023 Speedbird Online